Time;durP1;ratioP1;P1;durP2;ratioP2;P2;SDS_P1;SDS_P2;PMS_P1;PMS_P2;Temp;Humidity;BMP_temperature;BMP_pressure;BME280_temperature;BME280_humidity;BME280_pressure;Samples;Min_cycle;Max_cycle;Signal;HPM_P1;HPM_P2
2021/07/05 00:00:45;;;;;;;4.00;0.50;;;16.70;99.90;;;16.21;100.00;100347.28;4120616;28;20552;-78
2021/07/05 00:02:46;;;;;;;0.63;0.40;;;16.70;99.90;;;16.27;100.00;100374.91;4119485;28;20402;-78
2021/07/05 00:04:47;;;;;;;2.28;0.68;;;16.70;99.90;;;16.28;100.00;100373.88;4119423;28;20038;-78
2021/07/05 00:06:48;;;;;;;0.30;0.30;;;16.70;99.90;;;16.24;100.00;100368.16;4103348;28;20031;-78
2021/07/05 00:08:49;;;;;;;2.05;0.70;;;16.70;99.90;;;16.28;100.00;100358.72;4119521;28;20050;-78
2021/07/05 00:10:50;;;;;;;1.60;0.55;;;16.70;99.90;;;16.31;100.00;100361.00;4119419;28;20114;-78
2021/07/05 00:12:53;;;;;;;1.00;0.60;;;16.70;99.90;;;16.36;100.00;100363.06;4119028;28;20027;-78
2021/07/05 00:14:54;;;;;;;1.30;0.50;;;16.70;99.90;;;16.38;100.00;100361.00;4106632;28;20078;-78
2021/07/05 00:16:55;;;;;;;0.90;0.50;;;16.80;99.90;;;16.42;100.00;100352.44;4119097;28;20454;-78
2021/07/05 00:18:56;;;;;;;0.52;0.40;;;16.80;99.90;;;16.39;100.00;100354.66;4146980;28;20097;-78
2021/07/05 00:20:57;;;;;;;0.93;0.40;;;16.80;99.90;;;16.38;100.00;100343.19;4135250;28;20034;-78
2021/07/05 00:22:58;;;;;;;0.40;0.30;;;16.80;99.90;;;16.41;100.00;100345.44;4151777;28;20022;-78
2021/07/05 00:24:59;;;;;;;1.05;0.40;;;16.80;99.90;;;16.39;100.00;100336.84;4129133;28;20106;-79
2021/07/05 00:26:59;;;;;;;1.25;0.40;;;16.80;99.90;;;16.36;100.00;100345.25;4118793;28;20460;-79
2021/07/05 00:29:01;;;;;;;1.25;0.32;;;16.80;99.90;;;16.33;100.00;100328.84;4119079;28;20454;-79
2021/07/05 00:31:02;;;;;;;0.50;0.30;;;16.80;99.90;;;16.40;100.00;100324.34;4118931;28;20533;-79
2021/07/05 00:33:04;;;;;;;3.55;0.50;;;16.80;99.90;;;16.39;100.00;100320.88;4119044;28;20035;-79
2021/07/05 00:35:05;;;;;;;1.40;0.50;;;16.80;99.90;;;16.39;100.00;100318.22;4136198;28;20054;-79
2021/07/05 00:37:06;;;;;;;1.27;0.30;;;16.80;99.90;;;16.31;100.00;100330.88;4118648;28;20041;-79
2021/07/05 00:39:07;;;;;;;0.47;0.20;;;16.80;99.90;;;16.18;100.00;100321.06;4136061;28;20038;-78
2021/07/05 00:41:08;;;;;;;0.43;0.30;;;16.80;99.90;;;16.38;100.00;100319.25;4102882;28;20410;-79
2021/07/05 00:43:09;;;;;;;2.03;0.40;;;16.80;99.90;;;16.29;100.00;100323.13;4118898;28;20023;-79
2021/07/05 00:45:11;;;;;;;1.02;0.45;;;16.80;99.90;;;16.29;100.00;100327.63;4136093;28;20045;-79
2021/07/05 00:47:13;;;;;;;0.35;0.28;;;16.80;99.90;;;16.34;100.00;100325.97;4135825;28;20050;-79
2021/07/05 00:49:14;;;;;;;0.43;0.30;;;16.80;99.90;;;16.44;100.00;100320.25;4136104;28;20114;-79
2021/07/05 00:51:16;;;;;;;0.82;0.30;;;16.90;99.90;;;16.54;100.00;100312.72;4145746;28;20172;-79
2021/07/05 00:53:18;;;;;;;1.30;0.30;;;16.90;99.90;;;16.42;100.00;100309.00;4138036;28;20082;-79
2021/07/05 00:55:19;;;;;;;0.95;0.38;;;16.90;99.90;;;16.49;100.00;100309.81;4118811;28;20031;-79
2021/07/05 00:57:20;;;;;;;2.00;0.40;;;16.90;99.90;;;16.49;100.00;100312.47;4135543;28;20030;-79
2021/07/05 00:59:22;;;;;;;0.52;0.30;;;16.90;99.90;;;16.47;100.00;100304.69;4118740;28;20042;-79
2021/07/05 01:01:23;;;;;;;0.73;0.40;;;16.90;99.90;;;16.52;100.00;100304.06;4136017;28;20102;-78
2021/07/05 01:03:24;;;;;;;0.20;0.20;;;16.90;99.90;;;16.41;100.00;100300.19;4135804;28;20053;-80
2021/07/05 01:05:26;;;;;;;0.38;0.30;;;16.90;99.90;;;16.38;100.00;100302.44;4118552;28;20113;-79
2021/07/05 01:07:28;;;;;;;0.47;0.25;;;16.90;99.90;;;16.40;100.00;100301.22;4135809;28;20062;-79
2021/07/05 01:09:29;;;;;;;2.45;0.40;;;16.90;99.90;;;16.42;100.00;100299.19;4135776;28;20106;-79
2021/07/05 01:11:30;;;;;;;2.55;0.30;;;16.90;99.90;;;16.44;100.00;100297.13;4102062;28;20495;-79
2021/07/05 01:13:31;;;;;;;5.05;0.82;;;17.00;99.90;;;16.51;100.00;100308.59;4102485;29;20023;-79
2021/07/05 01:15:34;;;;;;;0.98;0.35;;;17.00;99.90;;;16.74;100.00;100313.53;4135721;28;20121;-79
2021/07/05 01:17:35;;;;;;;2.70;0.40;;;17.10;99.90;;;16.56;100.00;100318.66;4135939;28;20033;-79
2021/07/05 01:19:37;;;;;;;1.58;0.32;;;17.10;99.90;;;16.64;100.00;100313.13;4135342;28;20053;-79
2021/07/05 01:21:38;;;;;;;0.35;0.30;;;17.10;99.90;;;16.74;100.00;100318.84;4135836;28;20034;-78
2021/07/05 01:23:39;;;;;;;0.50;0.30;;;17.20;99.90;;;16.55;100.00;100315.16;4136276;28;20026;-78
2021/07/05 01:25:41;;;;;;;0.63;0.25;;;17.10;99.90;;;16.63;100.00;100318.66;4139680;28;20117;-78
2021/07/05 01:27:44;;;;;;;0.30;0.20;;;17.10;99.90;;;16.58;100.00;100317.41;4118307;28;20413;-78
2021/07/05 01:29:45;;;;;;;2.13;0.30;;;17.10;99.90;;;16.34;100.00;100319.84;4118510;28;20031;-78
2021/07/05 01:31:46;;;;;;;1.95;0.30;;;17.00;99.90;;;16.44;100.00;100330.91;4118421;28;20110;-78
2021/07/05 01:33:47;;;;;;;1.42;0.40;;;17.00;99.90;;;16.51;100.00;100331.75;4143434;28;20040;-78
2021/07/05 01:35:48;;;;;;;2.45;0.40;;;17.00;99.90;;;16.53;100.00;100338.50;4118592;28;20098;-79
2021/07/05 01:37:49;;;;;;;2.42;0.40;;;17.00;99.90;;;16.53;100.00;100341.16;4102349;28;20526;-79
2021/07/05 01:39:50;;;;;;;0.40;0.32;;;17.00;99.90;;;16.40;100.00;100338.47;4118290;28;20478;-79
2021/07/05 01:41:51;;;;;;;0.93;0.30;;;17.00;99.90;;;16.37;100.00;100336.22;4118028;28;20113;-79
2021/07/05 01:43:52;;;;;;;1.45;0.30;;;16.90;99.90;;;16.46;100.00;100352.81;4118215;28;20030;-79
2021/07/05 01:45:54;;;;;;;0.40;0.30;;;16.90;99.90;;;16.40;100.00;100335.00;4134503;28;20046;-79
2021/07/05 01:47:55;;;;;;;0.35;0.30;;;16.90;99.90;;;16.39;100.00;100333.38;4118318;28;20031;-79
2021/07/05 01:49:56;;;;;;;1.52;0.40;;;16.90;99.90;;;16.35;100.00;100327.63;4135473;28;20031;-79
2021/07/05 01:51:57;;;;;;;0.73;0.30;;;16.80;99.90;;;16.43;100.00;100324.75;4133383;28;20035;-79
2021/07/05 01:53:58;;;;;;;0.95;0.52;;;16.90;99.90;;;16.43;100.00;100319.44;4151811;28;20061;-79
2021/07/05 01:55:59;;;;;;;0.40;0.30;;;16.90;99.90;;;16.41;100.00;100321.50;4151496;28;20026;-79
2021/07/05 01:58:07;;;;;;;3.38;0.50;;;16.80;99.90;;;16.42;100.00;100336.44;4150378;28;20022;-79
2021/07/05 02:00:16;;;;;;;5.15;0.40;;;16.80;99.90;;;16.56;100.00;100354.09;4134269;28;20027;-79
2021/07/05 02:02:17;;;;;;;3.03;0.80;;;16.90;99.90;;;16.53;100.00;100353.66;4134442;28;20029;-79
2021/07/05 02:04:18;;;;;;;0.82;0.38;;;16.90;99.90;;;16.43;100.00;100345.22;4134310;28;20038;-79
2021/07/05 02:06:18;;;;;;;0.50;0.35;;;16.90;99.90;;;16.54;100.00;100361.47;4151578;28;20026;-79
2021/07/05 02:08:20;;;;;;;1.63;0.50;;;16.90;99.90;;;16.25;100.00;100353.81;4153179;28;20045;-79
2021/07/05 02:10:42;;;;;;;0.98;0.40;;;16.90;99.90;;;16.21;100.00;100365.91;4137336;28;20068;-79
2021/07/05 02:12:44;;;;;;;0.52;0.52;;;16.80;99.90;;;16.25;100.00;100359.13;4137288;28;20032;-79
2021/07/05 02:14:45;;;;;;;4.13;0.82;;;16.80;99.90;;;16.29;100.00;100376.34;4120977;28;20023;-79
2021/07/05 02:16:46;;;;;;;0.95;0.40;;;16.80;99.90;;;16.26;100.00;100371.44;4137326;28;20030;-79
2021/07/05 02:18:47;;;;;;;0.50;0.40;;;16.80;99.90;;;16.13;100.00;100362.59;4154640;28;20508;-79
2021/07/05 02:20:48;;;;;;;2.08;0.40;;;16.70;99.90;;;16.23;100.00;100377.16;4137284;28;20030;-79
2021/07/05 02:22:52;;;;;;;1.85;0.40;;;16.70;99.90;;;16.29;100.00;100381.69;4154557;28;20026;-79
2021/07/05 02:24:53;;;;;;;1.42;0.40;;;16.70;99.90;;;16.34;100.00;100378.38;4148396;28;20030;-79
2021/07/05 02:26:54;;;;;;;0.82;0.40;;;16.80;99.90;;;16.29;100.00;100376.34;4120741;28;20114;-79
2021/07/05 02:28:56;;;;;;;3.45;0.50;;;16.80;99.90;;;16.16;100.00;100384.28;4138265;28;20030;-79
2021/07/05 02:30:58;;;;;;;1.77;0.93;;;16.80;99.90;;;16.15;100.00;100377.34;4120706;28;20174;-79
2021/07/05 02:33:00;;;;;;;2.25;0.57;;;16.70;99.90;;;16.10;100.00;100389.63;4120827;28;20058;-79
2021/07/05 02:35:02;;;;;;;0.52;0.50;;;16.70;99.90;;;16.00;100.00;100400.63;4138207;28;20069;-79
2021/07/05 02:37:03;;;;;;;0.32;0.32;;;16.60;99.90;;;16.09;100.00;100407.41;4104910;28;20042;-79
2021/07/05 02:39:05;;;;;;;0.40;0.40;;;16.60;99.90;;;16.04;100.00;100412.50;4121151;28;20449;-79
2021/07/05 02:41:06;;;;;;;1.83;0.40;;;16.60;99.90;;;16.08;100.00;100410.25;4120606;28;20066;-79
2021/07/05 02:43:07;;;;;;;3.90;0.70;;;16.60;99.90;;;16.24;100.00;100416.06;4120685;28;20121;-78
2021/07/05 02:45:24;;;;;;;3.22;0.50;;;16.60;99.90;;;16.25;100.00;100408.88;4137994;28;20030;-78
2021/07/05 02:47:25;;;;;;;1.92;0.50;;;16.60;99.90;;;16.26;100.00;100419.34;4121997;28;20026;-79
2021/07/05 02:49:26;;;;;;;1.58;0.40;;;16.60;99.90;;;16.04;100.00;100420.47;4120636;28;20045;-78
2021/07/05 02:51:27;;;;;;;1.58;0.50;;;16.60;99.90;;;16.10;100.00;100425.00;4131853;28;20056;-79
2021/07/05 02:53:28;;;;;;;1.42;0.40;;;16.60;99.90;;;16.09;100.00;100428.72;4122152;28;20031;-78
2021/07/05 02:55:29;;;;;;;3.47;0.60;;;16.60;99.90;;;16.07;100.00;100425.41;4120542;28;20026;-78
2021/07/05 02:57:30;;;;;;;1.23;0.60;;;16.60;99.90;;;16.12;100.00;100438.94;4120310;28;20034;-79
2021/07/05 02:59:31;;;;;;;2.67;0.50;;;16.60;99.90;;;16.10;100.00;100450.81;4120478;28;20031;-78
2021/07/05 03:01:32;;;;;;;1.48;0.80;;;16.60;99.90;;;15.88;100.00;100439.47;4120572;28;20039;-78
2021/07/05 03:03:33;;;;;;;1.58;0.60;;;16.60;99.90;;;15.82;100.00;100443.72;4137909;28;20027;-78
2021/07/05 03:05:34;;;;;;;4.28;0.75;;;16.50;99.90;;;15.92;100.00;100440.69;4137641;28;20113;-78
2021/07/05 03:07:36;;;;;;;3.72;0.70;;;16.50;99.90;;;15.85;100.00;100438.03;4137556;28;20033;-79
2021/07/05 03:09:37;;;;;;;1.63;0.70;;;16.50;99.90;;;15.91;100.00;100449.72;4137395;28;20088;-79
2021/07/05 03:11:38;;;;;;;2.00;0.70;;;16.40;99.90;;;15.84;100.00;100455.00;4137311;28;20027;-79
2021/07/05 03:13:39;;;;;;;1.63;0.82;;;16.40;99.90;;;15.79;100.00;100454.78;4104207;28;20034;-79
2021/07/05 03:15:40;;;;;;;2.67;0.60;;;16.40;99.90;;;15.77;100.00;100456.00;4120225;28;20026;-79
2021/07/05 03:17:44;;;;;;;2.35;0.98;;;16.40;99.90;;;15.71;100.00;100457.56;4137266;28;20049;-78
2021/07/05 03:19:45;;;;;;;3.55;1.10;;;16.40;99.90;;;15.73;100.00;100458.22;4118916;28;20077;-79
2021/07/05 03:21:46;;;;;;;2.30;0.85;;;16.30;99.90;;;15.81;100.00;100466.03;4120291;28;20037;-79
2021/07/05 03:23:47;;;;;;;1.73;1.00;;;16.30;99.90;;;15.84;100.00;100440.88;4105536;28;20027;-78
2021/07/05 03:25:48;;;;;;;1.92;1.10;;;16.30;99.90;;;15.91;100.00;100463.00;4138402;28;20405;-78
2021/07/05 03:27:51;;;;;;;2.40;0.82;;;16.30;99.90;;;15.83;100.00;100468.50;4120070;28;20026;-78
2021/07/05 03:29:53;;;;;;;2.33;1.30;;;16.30;99.90;;;15.94;100.00;100481.25;4120077;28;20438;-78
2021/07/05 03:31:54;;;;;;;1.40;1.30;;;16.30;99.90;;;15.90;100.00;100479.97;4137248;28;20032;-78
2021/07/05 03:33:55;;;;;;;1.73;0.85;;;16.30;99.90;;;15.89;100.00;100471.16;4119855;28;20121;-78
2021/07/05 03:35:56;;;;;;;1.17;0.73;;;16.30;99.90;;;15.78;100.00;100478.88;4119715;28;20475;-78
2021/07/05 03:37:58;;;;;;;1.75;0.90;;;16.20;99.90;;;15.75;100.00;100492.56;4119916;28;20035;-78
2021/07/05 03:39:59;;;;;;;1.15;0.80;;;16.20;99.90;;;15.83;100.00;100492.44;4120054;28;20380;-78
2021/07/05 03:42:00;;;;;;;3.92;1.40;;;16.20;99.90;;;15.91;100.00;100489.59;4119476;28;20131;-79
2021/07/05 03:44:01;;;;;;;3.28;1.10;;;16.20;99.90;;;15.79;100.00;100497.31;4119830;28;20494;-78
2021/07/05 03:46:04;;;;;;;1.67;1.00;;;16.30;99.90;;;15.70;100.00;100501.16;4119824;28;20405;-78
2021/07/05 03:48:07;;;;;;;3.30;1.13;;;16.20;99.90;;;15.52;100.00;100513.28;4119888;28;20085;-78
2021/07/05 03:50:10;;;;;;;2.17;1.23;;;16.20;99.90;;;15.55;100.00;100512.91;4104143;28;20031;-78
2021/07/05 03:52:11;;;;;;;2.35;1.10;;;16.10;99.90;;;15.69;100.00;100522.59;4115654;28;20509;-78
2021/07/05 03:54:12;;;;;;;1.20;0.85;;;16.10;99.90;;;15.81;100.00;100527.19;4119589;28;20030;-78
2021/07/05 03:56:13;;;;;;;1.67;0.90;;;16.20;99.90;;;15.78;100.00;100521.44;4103252;28;20035;-78
2021/07/05 03:58:16;;;;;;;4.93;1.98;;;16.20;99.90;;;15.72;100.00;100516.91;4136680;28;20486;-79
2021/07/05 04:00:26;;;;;;;1.98;1.20;;;16.20;99.90;;;15.63;100.00;100507.44;4119812;28;20031;-78
2021/07/05 04:02:27;;;;;;;1.42;1.05;;;16.10;99.90;;;15.65;100.00;100506.22;4136617;28;20045;-78
2021/07/05 04:04:28;;;;;;;1.30;0.75;;;16.10;99.90;;;15.69;100.00;100502.16;4119260;28;20429;-78
2021/07/05 04:06:29;;;;;;;3.13;1.20;;;16.10;99.90;;;15.72;100.00;100511.56;4119251;28;20031;-79
2021/07/05 04:08:32;;;;;;;3.92;1.00;;;16.10;99.90;;;15.69;100.00;100506.66;4136647;28;20038;-78
2021/07/05 04:10:34;;;;;;;1.63;0.90;;;16.10;99.90;;;15.75;100.00;100512.03;4119626;28;20497;-78
2021/07/05 04:12:36;;;;;;;1.63;0.82;;;16.10;99.90;;;15.71;100.00;100517.94;4119103;28;20203;-78
2021/07/05 04:14:39;;;;;;;2.47;1.10;;;16.10;99.90;;;15.62;100.00;100527.88;4119164;28;20098;-78
2021/07/05 04:16:39;;;;;;;3.60;1.23;;;16.10;99.90;;;15.36;100.00;100512.53;4119284;28;20038;-79
2021/07/05 04:18:40;;;;;;;3.17;1.30;;;16.00;99.90;;;15.20;100.00;100534.03;4129959;28;20475;-78
2021/07/05 04:20:42;;;;;;;1.63;1.10;;;15.90;99.90;;;15.29;100.00;100540.06;4103083;29;20031;-78
2021/07/05 04:22:43;;;;;;;3.13;1.38;;;15.90;99.90;;;15.33;100.00;100536.81;4120247;28;20027;-78
2021/07/05 04:24:45;;;;;;;2.53;1.13;;;15.80;99.90;;;15.45;100.00;100543.28;4120107;28;20058;-78
2021/07/05 04:26:47;;;;;;;1.73;0.90;;;15.90;99.90;;;15.35;100.00;100542.75;4119989;28;20395;-78
2021/07/05 04:28:48;;;;;;;3.63;1.40;;;15.80;99.90;;;15.33;100.00;100523.53;4120310;28;20037;-79
2021/07/05 04:30:50;;;;;;;2.22;1.30;;;15.80;99.90;;;15.36;100.00;100522.31;4118450;28;20034;-79
2021/07/05 04:32:51;;;;;;;4.28;1.05;;;15.80;99.90;;;15.37;100.00;100519.50;4120333;28;20034;-79
2021/07/05 04:34:52;;;;;;;2.92;1.33;;;15.70;99.90;;;15.31;100.00;100530.06;4120140;28;20026;-78
2021/07/05 04:36:53;;;;;;;4.05;1.20;;;15.70;99.90;;;15.29;100.00;100506.31;4118780;28;20054;-78
2021/07/05 04:38:54;;;;;;;2.05;1.05;;;15.70;99.90;;;15.33;100.00;100510.25;4119992;28;20041;-79
2021/07/05 04:41:01;;;;;;;1.63;1.10;;;15.80;99.90;;;15.34;100.00;100514.56;4119850;28;20030;-79
2021/07/05 04:43:04;;;;;;;2.70;1.40;;;15.80;99.90;;;15.44;100.00;100530.97;4120220;28;20023;-78
2021/07/05 04:45:08;;;;;;;1.50;1.30;;;15.90;99.90;;;15.44;100.00;100524.88;4118883;28;20109;-78
2021/07/05 04:47:11;;;;;;;4.90;1.10;;;15.90;99.90;;;15.46;100.00;100531.63;4118642;28;20031;-79
2021/07/05 04:49:13;;;;;;;6.28;1.40;;;15.90;99.90;;;15.39;100.00;100522.78;4118579;28;20042;-78
2021/07/05 04:51:15;;;;;;;2.90;1.13;;;15.90;99.90;;;15.42;100.00;100516.25;4118716;28;20038;-78
2021/07/05 04:53:16;;;;;;;6.75;1.60;;;15.90;99.90;;;15.38;100.00;100531.75;4119890;28;20121;-79
2021/07/05 04:55:19;;;;;;;4.55;1.60;;;15.80;99.90;;;15.19;100.00;100527.09;4118606;28;20027;-79
2021/07/05 04:57:20;;;;;;;3.73;1.50;;;15.80;99.90;;;15.24;100.00;100535.31;4118578;28;20027;-79
2021/07/05 04:59:21;;;;;;;2.88;1.60;;;15.70;99.90;;;15.34;100.00;100525.19;4102576;29;20175;-79
2021/07/05 05:01:22;;;;;;;3.33;1.58;;;15.70;99.90;;;15.30;100.00;100533.72;4118668;28;20042;-78
2021/07/05 05:03:23;;;;;;;3.90;1.60;;;15.70;99.90;;;15.30;100.00;100537.22;4118606;28;20041;-78
2021/07/05 05:05:25;;;;;;;2.55;1.25;;;15.70;99.90;;;15.23;100.00;100532.88;4118857;28;20041;-78
2021/07/05 05:07:26;;;;;;;3.67;1.40;;;15.60;99.90;;;15.23;100.00;100528.34;4118547;28;20019;-79
2021/07/05 05:09:27;;;;;;;5.93;1.83;;;15.60;99.90;;;15.22;100.00;100541.84;4119858;28;20022;-79
2021/07/05 05:11:28;;;;;;;3.80;1.70;;;15.60;99.90;;;15.30;100.00;100554.97;4118284;28;20030;-79
2021/07/05 05:13:29;;;;;;;5.90;1.58;;;15.60;99.90;;;15.21;100.00;100561.44;4102608;29;20131;-80
2021/07/05 05:15:30;;;;;;;2.28;1.38;;;15.60;99.90;;;15.26;100.00;100561.72;4134578;28;20023;-79
2021/07/05 05:17:31;;;;;;;4.00;1.33;;;15.60;99.90;;;15.33;100.00;100557.25;4118513;28;20031;-79
2021/07/05 05:19:34;;;;;;;2.00;1.25;;;15.70;99.90;;;15.59;100.00;100565.47;4118200;28;20173;-78
2021/07/05 05:21:35;;;;;;;6.75;1.50;;;15.90;99.90;;;15.60;100.00;100553.00;4118476;28;20454;-79
2021/07/05 05:23:36;;;;;;;1.38;1.20;;;16.00;99.90;;;15.70;100.00;100551.69;4119527;28;20027;-78
2021/07/05 05:25:37;;;;;;;2.40;1.23;;;16.10;99.90;;;15.91;100.00;100550.78;4118331;28;20038;-79
2021/07/05 05:27:39;;;;;;;2.83;1.40;;;16.30;99.90;;;15.88;100.00;100553.84;4119465;28;20026;-80
2021/07/05 05:29:40;;;;;;;4.03;1.20;;;16.30;99.90;;;15.66;100.00;100554.91;4118458;28;20026;-78
2021/07/05 05:31:41;;;;;;;5.68;1.55;;;16.40;99.90;;;15.46;100.00;100552.91;4118451;28;20030;-78
2021/07/05 05:33:42;;;;;;;3.05;1.20;;;16.30;99.90;;;15.48;100.00;100553.56;4117974;28;20051;-78
2021/07/05 05:35:43;;;;;;;3.78;1.30;;;16.30;99.90;;;15.74;100.00;100546.81;4118177;28;20031;-78
2021/07/05 05:37:45;;;;;;;1.90;1.20;;;16.30;99.90;;;15.79;100.00;100544.38;4119742;28;20086;-79
2021/07/05 05:39:46;;;;;;;3.72;1.00;;;16.30;99.90;;;15.47;100.00;100530.63;4119493;28;20026;-78
2021/07/05 05:41:47;;;;;;;1.42;1.00;;;16.30;99.90;;;15.71;100.00;100542.66;4119208;28;20042;-79
2021/07/05 05:43:48;;;;;;;2.33;1.10;;;16.40;99.90;;;15.77;100.00;100538.44;4120357;28;20031;-79
2021/07/05 05:45:49;;;;;;;3.47;1.40;;;16.50;99.90;;;16.06;100.00;100546.19;4121666;28;20039;-79
2021/07/05 05:47:50;;;;;;;2.38;1.25;;;16.60;99.90;;;15.93;100.00;100554.91;4121593;28;20514;-79
2021/07/05 05:49:51;;;;;;;3.45;1.30;;;16.70;99.90;;;15.80;100.00;100551.34;4122654;28;20059;-78
2021/07/05 05:51:52;;;;;;;3.17;1.00;;;16.60;99.90;;;15.85;100.00;100543.59;4133723;28;20022;-78
2021/07/05 05:53:53;;;;;;;2.55;1.10;;;16.50;99.90;;;15.83;100.00;100541.13;4105447;28;20035;-78
2021/07/05 05:55:54;;;;;;;1.17;1.00;;;16.40;99.90;;;15.85;100.00;100543.59;4106512;28;20023;-78
2021/07/05 05:57:55;;;;;;;5.65;1.65;;;16.40;99.90;;;15.87;100.00;100550.34;4089480;29;20034;-78
2021/07/05 05:59:59;;;;;;;2.22;1.40;;;16.40;99.90;;;15.83;100.00;100556.28;4105316;28;20115;-77
2021/07/05 06:02:00;;;;;;;2.15;1.80;;;16.30;99.90;;;15.78;100.00;100556.84;4112433;28;20034;-78
2021/07/05 06:04:02;;;;;;;7.38;1.90;;;16.30;99.90;;;15.72;100.00;100551.47;4109748;28;20030;-77
2021/07/05 06:06:03;;;;;;;2.30;1.45;;;16.30;99.90;;;15.72;100.00;100540.84;4108813;28;20617;-78
2021/07/05 06:08:04;;;;;;;2.28;1.42;;;16.30;99.90;;;15.71;100.00;100541.88;4105013;28;20023;-77
2021/07/05 06:10:07;;;;;;;4.65;1.70;;;16.20;99.90;;;15.67;100.00;100541.44;4105153;28;20031;-78
2021/07/05 06:12:08;;;;;;;3.97;1.40;;;16.20;99.90;;;15.78;100.00;100550.69;4112614;28;20027;-78
2021/07/05 06:14:10;;;;;;;1.88;1.17;;;16.30;99.90;;;15.98;100.00;100547.16;4093987;29;20064;-78
2021/07/05 06:16:11;;;;;;;4.82;1.38;;;16.50;99.90;;;16.04;100.00;100542.88;4137518;28;20030;-78
2021/07/05 06:18:12;;;;;;;4.43;1.60;;;16.70;99.90;;;16.15;100.00;100539.69;4120948;28;20031;-78
2021/07/05 06:20:14;;;;;;;4.40;1.27;;;16.90;99.90;;;16.34;100.00;100538.94;4137904;28;20101;-75
2021/07/05 06:22:26;;;;;;;2.35;1.30;;;17.00;99.90;;;16.52;100.00;100547.22;4132191;28;20506;-75
2021/07/05 06:24:27;;;;;;;3.30;1.13;;;17.10;99.90;;;16.42;100.00;100552.09;4135020;28;20510;-78
2021/07/05 06:26:28;;;;;;;4.32;1.30;;;17.20;99.90;;;16.43;100.00;100563.53;4109535;28;20035;-79
2021/07/05 06:28:32;;;;;;;4.07;1.30;;;17.20;99.90;;;16.45;100.00;100567.69;4120280;28;20130;-78
2021/07/05 06:30:34;;;;;;;2.58;1.20;;;17.20;99.90;;;16.35;100.00;100558.41;4119869;28;20046;-79
2021/07/05 06:32:35;;;;;;;1.85;0.80;;;17.20;99.90;;;16.38;100.00;100563.31;4120227;28;20457;-79
2021/07/05 06:34:39;;;;;;;2.65;1.30;;;17.10;99.90;;;16.31;100.00;100543.84;4144665;28;20054;-78
2021/07/05 06:36:40;;;;;;;2.85;1.33;;;17.00;99.90;;;16.30;100.00;100563.50;4136576;28;20033;-78
2021/07/05 06:38:42;;;;;;;1.65;1.10;;;17.00;99.90;;;16.29;100.00;100568.00;4120148;28;20395;-79
2021/07/05 06:40:44;;;;;;;1.92;1.35;;;16.90;99.90;;;16.36;100.00;100552.91;4119770;28;20049;-79
2021/07/05 06:42:45;;;;;;;5.03;1.33;;;17.00;99.90;;;16.43;100.00;100556.38;4120516;28;20046;-80
2021/07/05 06:44:46;;;;;;;1.98;1.42;;;17.10;99.90;;;16.66;100.00;100548.13;4104234;28;20020;-78
2021/07/05 06:46:47;;;;;;;1.50;1.00;;;17.20;99.90;;;16.81;100.00;100538.13;4120247;28;20091;-79
2021/07/05 06:48:49;;;;;;;5.38;1.08;;;17.50;99.90;;;17.01;100.00;100528.31;4120052;28;20034;-79
2021/07/05 06:50:50;;;;;;;1.13;0.82;;;17.70;99.90;;;17.15;100.00;100529.97;4142266;28;20088;-79
2021/07/05 06:52:52;;;;;;;2.72;1.10;;;18.00;99.90;;;17.43;100.00;100544.97;4135607;28;20483;-78
2021/07/05 06:54:52;;;;;;;1.73;0.70;;;18.20;99.90;;;17.66;100.00;100538.22;4135833;28;20030;-77
2021/07/05 06:56:53;;;;;;;2.55;1.02;;;18.60;99.90;;;17.77;100.00;100542.09;4130604;28;20023;-77
2021/07/05 06:58:54;;;;;;;2.30;1.05;;;18.80;99.90;;;17.73;100.00;100556.06;4136525;28;20030;-76
2021/07/05 07:00:56;;;;;;;1.70;0.88;;;18.90;99.90;;;17.68;97.26;100551.34;4111693;28;20170;-76
2021/07/05 07:02:59;;;;;;;2.90;0.90;;;18.90;99.90;;;17.57;97.15;100541.28;4146270;28;20022;-75
2021/07/05 07:04:59;;;;;;;2.75;0.70;;;18.90;99.90;;;17.47;98.03;100532.88;4136122;28;20070;-76
2021/07/05 07:07:00;;;;;;;1.70;1.23;;;18.80;99.90;;;17.32;100.00;100551.75;4129281;28;20031;-75
2021/07/05 07:09:02;;;;;;;1.33;0.85;;;18.70;99.90;;;17.48;98.83;100548.66;4136940;28;20052;-76
2021/07/05 07:11:03;;;;;;;1.33;0.75;;;18.60;99.90;;;17.32;99.30;100557.06;4131574;28;20034;-76
2021/07/05 07:13:04;;;;;;;1.40;0.70;;;18.60;99.90;;;17.32;100.00;100551.75;4153163;28;20066;-77
2021/07/05 07:15:08;;;;;;;3.35;1.25;;;18.50;99.90;;;17.43;100.00;100555.63;4153258;28;20034;-76
2021/07/05 07:17:19;;;;;;;;;;;18.50;99.90;;;17.47;100.00;100555.00;4136057;28;20046;-77
2021/07/05 07:19:20;;;;;;;3.45;1.10;;;18.50;99.90;;;17.39;100.00;100536.53;4120755;28;20412;-79
2021/07/05 07:21:23;;;;;;;1.70;0.85;;;18.50;99.90;;;17.43;100.00;100548.44;4151732;28;20033;-79
2021/07/05 07:23:24;;;;;;;2.00;0.82;;;18.40;99.90;;;17.47;100.00;100536.31;4119809;28;20521;-77
2021/07/05 07:25:25;;;;;;;2.72;0.70;;;18.50;99.90;;;17.58;100.00;100543.75;4108879;28;20035;-78
2021/07/05 07:27:26;;;;;;;3.55;0.88;;;18.60;99.90;;;17.63;100.00;100553.81;4118882;28;20039;-78
2021/07/05 07:29:28;;;;;;;1.63;0.80;;;18.60;99.90;;;17.73;100.00;100556.06;4119596;28;20512;-78
2021/07/05 07:31:29;;;;;;;1.55;0.50;;;18.70;99.90;;;17.66;100.00;100548.88;4136805;28;20015;-78
2021/07/05 07:33:30;;;;;;;3.30;0.70;;;18.70;99.90;;;17.74;100.00;100552.38;4119558;28;20391;-78
2021/07/05 07:35:31;;;;;;;1.15;0.60;;;18.80;99.90;;;17.31;100.00;100546.59;4136605;28;20061;-79
2021/07/05 07:37:33;;;;;;;1.95;0.70;;;18.60;99.90;;;17.35;100.00;100547.84;4119317;28;20061;-78
2021/07/05 07:39:40;;;;;;;1.13;0.52;;;18.50;99.90;;;17.52;100.00;100544.56;4119440;28;20037;-79
2021/07/05 07:41:41;;;;;;;2.10;0.93;;;18.60;99.90;;;17.61;100.00;100539.84;4119390;28;20027;-78
2021/07/05 07:43:42;;;;;;;2.70;0.50;;;18.70;99.90;;;17.69;100.00;100540.47;4119374;28;20027;-78
2021/07/05 07:45:43;;;;;;;1.17;0.40;;;18.80;99.90;;;17.92;100.00;100550.69;4136665;28;20030;-78
2021/07/05 07:47:44;;;;;;;2.80;0.57;;;18.90;99.90;;;17.96;100.00;100551.09;4127359;28;20015;-79
2021/07/05 07:49:45;;;;;;;2.00;0.60;;;19.00;99.90;;;18.01;99.41;100559.31;4119394;28;20030;-80
2021/07/05 07:51:47;;;;;;;0.75;0.65;;;19.10;99.90;;;18.06;99.27;100557.66;4151173;28;20088;-79
2021/07/05 07:53:48;;;;;;;2.90;0.80;;;19.20;99.90;;;18.02;98.29;100555.59;4119455;28;20034;-78
2021/07/05 07:55:49;;;;;;;1.20;0.60;;;19.30;99.90;;;17.95;98.35;100528.13;4136199;28;20092;-79
2021/07/05 07:57:50;;;;;;;2.38;0.68;;;19.30;99.90;;;18.16;98.28;100530.50;4119231;28;20430;-79
2021/07/05 07:59:50;;;;;;;1.70;0.75;;;19.40;99.90;;;18.28;97.16;100520.81;4119360;28;20062;-78
2021/07/05 08:01:51;;;;;;;1.45;0.70;;;19.50;99.90;;;18.32;96.39;100529.22;4119419;28;20110;-78
2021/07/05 08:03:52;;;;;;;1.15;0.63;;;19.60;99.90;;;18.55;94.59;100538.38;4119432;28;20506;-79
2021/07/05 08:05:55;;;;;;;1.80;0.70;;;19.60;99.90;;;18.51;93.78;100539.88;4118717;28;20030;-78
2021/07/05 08:07:56;;;;;;;1.90;0.68;;;19.70;99.90;;;18.66;92.80;100532.41;4135861;28;20030;-79
2021/07/05 08:09:57;;;;;;;2.40;0.88;;;19.80;99.90;;;18.63;92.05;100524.81;4119280;28;20125;-79
2021/07/05 08:11:58;;;;;;;1.65;0.80;;;19.90;99.90;;;18.32;94.28;100527.38;4135669;28;20050;-78
2021/07/05 08:14:01;;;;;;;2.00;0.70;;;19.80;99.90;;;18.58;94.63;100540.63;4136255;28;20053;-79
2021/07/05 08:16:02;;;;;;;2.55;0.55;;;19.90;99.90;;;18.29;92.85;100541.13;4118952;28;20541;-79
2021/07/05 08:18:03;;;;;;;2.30;0.70;;;19.80;99.90;;;18.63;93.42;100535.50;4118730;28;20034;-79
2021/07/05 08:20:06;;;;;;;2.85;1.00;;;19.90;99.90;;;18.52;92.25;100535.31;4136305;28;20379;-79
2021/07/05 08:22:07;;;;;;;2.13;0.70;;;19.90;99.90;;;18.12;94.53;100538.13;4136145;28;20038;-79